Time;durP1;ratioP1;P1;durP2;ratioP2;P2;SDS_P1;SDS_P2;PMS_P1;PMS_P2;Temp;Humidity;BMP_temperature;BMP_pressure;BME280_temperature;BME280_humidity;BME280_pressure;Samples;Min_cycle;Max_cycle;Signal;HPM_P1;HPM_P2
2023/03/06 00:00:56;;;;;;;11.33;8.87;;;;;;;2.82;49.84;99030.75;10274059;28;20742;-36
2023/03/06 00:05:59;;;;;;;12.10;9.33;;;;;;;4.97;46.95;98913.19;10267348;28;20239;-37
2023/03/06 00:11:00;;;;;;;13.93;9.67;;;;;;;3.01;50.10;98989.28;10271338;28;20728;-36
2023/03/06 00:16:03;;;;;;;13.57;10.40;;;;;;;2.56;49.85;99029.84;10279009;28;20405;-37
2023/03/06 00:21:07;;;;;;;13.50;9.93;;;;;;;1.24;52.32;99125.75;10278291;28;20237;-37
2023/03/06 00:26:09;;;;;;;16.00;10.60;;;;;;;0.82;53.92;99118.94;10279620;28;20226;-37
2023/03/06 00:31:11;;;;;;;15.53;10.30;;;;;;;3.19;49.96;98923.97;10278260;28;20231;-36
2023/03/06 00:36:12;;;;;;;13.97;10.80;;;;;;;2.76;50.93;98938.88;10274254;28;20620;-38
2023/03/06 00:41:14;;;;;;;13.40;10.60;;;;;;;1.98;52.43;98987.84;10274682;28;20239;-36
2023/03/06 00:46:16;;;;;;;14.57;9.93;;;;;;;1.17;53.60;99049.03;10268836;28;20229;-36
2023/03/06 00:51:18;;;;;;;18.37;11.50;;;;;;;3.43;50.74;98843.91;10271564;28;20241;-37
2023/03/06 00:56:21;;;;;;;14.07;10.10;;;;;;;3.52;49.84;98888.91;10280160;28;20230;-36
2023/03/06 01:01:22;;;;;;;15.67;11.10;;;;;;;3.27;48.56;98931.91;10278887;28;20239;-38
2023/03/06 01:06:24;;;;;;;16.27;12.43;;;;;;;3.24;50.49;98911.09;10271734;28;20230;-38
2023/03/06 01:11:26;;;;;;;17.60;11.83;;;;;;;4.14;48.55;98862.06;10271190;28;20526;-37
2023/03/06 01:16:28;;;;;;;17.00;12.00;;;;;;;3.64;48.75;98925.47;10274341;28;20714;-36
2023/03/06 01:21:29;;;;;;;15.03;11.07;;;;;;;4.08;48.45;98894.47;10273255;28;20346;-37
2023/03/06 01:26:32;;;;;;;16.67;11.50;;;;;;;3.73;48.69;98906.97;10274239;28;20708;-37
2023/03/06 01:31:34;;;;;;;13.07;10.53;;;;;;;3.76;49.21;98893.41;10273140;28;20239;-37
2023/03/06 01:36:35;;;;;;;13.00;10.00;;;;;;;4.04;48.35;98883.38;10274885;28;20223;-36
2023/03/06 01:41:37;;;;;;;17.60;11.93;;;;;;;2.45;50.68;98983.34;10274837;28;20245;-38
2023/03/06 01:46:42;;;;;;;16.20;11.73;;;;;;;1.77;52.34;98977.50;10271986;28;20235;-36
2023/03/06 01:51:47;;;;;;;13.43;10.67;;;;;;;2.08;53.32;98937.63;10267277;28;20238;-35
2023/03/06 01:56:53;;;;;;;15.57;11.37;;;;;;;2.82;51.26;98861.63;10272240;28;20246;-36
2023/03/06 02:01:57;;;;;;;17.30;11.60;;;;;;;3.38;50.25;98821.56;10272698;28;20944;-36
2023/03/06 02:07:03;;;;;;;14.67;10.77;;;;;;;3.18;50.60;98868.59;10276726;28;20230;-38
2023/03/06 02:12:09;;;;;;;15.33;11.50;;;;;;;3.96;49.08;98802.13;10270443;28;20245;-37
2023/03/06 02:17:14;;;;;;;12.43;10.93;;;;;;;2.26;51.50;98923.59;10269569;28;20250;-38
2023/03/06 02:22:15;;;;;;;15.03;11.40;;;;;;;3.40;50.43;98822.25;10270401;28;20731;-37
2023/03/06 02:27:18;;;;;;;14.93;11.07;;;;;;;3.23;50.71;98838.03;10271351;28;20792;-37
2023/03/06 02:32:20;;;;;;;13.70;10.90;;;;;;;3.42;49.78;98822.91;10268482;28;20229;-37
2023/03/06 02:37:23;;;;;;;15.50;11.73;;;;;;;1.96;52.38;98936.16;10271453;28;20226;-36
2023/03/06 02:42:27;;;;;;;15.47;11.10;;;;;;;3.18;50.48;98826.31;10260810;28;21029;-37
2023/03/06 02:47:29;;;;;;;14.23;10.47;;;;;;;2.51;51.13;98869.16;10268640;28;20276;-38
2023/03/06 02:52:31;;;;;;;14.67;11.60;;;;;;;3.03;51.06;98816.31;10262335;28;20243;-39
2023/03/06 02:57:32;;;;;;;18.77;11.93;;;;;;;3.52;49.86;98783.09;10270445;28;20229;-37
2023/03/06 03:02:34;;;;;;;15.50;10.53;;;;;;;3.41;50.19;98814.16;10269348;28;20235;-38
2023/03/06 03:07:36;;;;;;;18.97;10.87;;;;;;;3.08;49.78;98821.13;10271471;28;20578;-37
2023/03/06 03:12:38;;;;;;;13.23;10.23;;;;;;;3.54;49.75;98803.06;10275022;28;20646;-37
2023/03/06 03:17:41;;;;;;;14.80;11.00;;;;;;;4.65;47.91;98732.84;10264077;28;20249;-39
2023/03/06 03:22:47;;;;;;;14.50;10.03;;;;;;;4.05;48.62;98765.06;10264819;28;20239;-38
2023/03/06 03:27:48;;;;;;;15.77;10.47;;;;;;;3.70;48.37;98801.44;10265612;28;20242;-36
2023/03/06 03:32:50;;;;;;;15.27;11.43;;;;;;;4.19;47.86;98764.41;10265812;28;20251;-37
2023/03/06 03:37:53;;;;;;;14.17;9.77;;;;;;;3.39;49.98;98808.16;10268383;28;20273;-39
2023/03/06 03:42:55;;;;;;;14.53;10.20;;;;;;;4.24;47.99;98751.47;10268079;28;20242;-37
2023/03/06 03:47:56;;;;;;;14.97;10.87;;;;;;;4.39;48.22;98749.81;10279823;28;20246;-39
2023/03/06 03:52:58;;;;;;;15.90;11.80;;;;;;;4.29;47.99;98748.31;10273907;28;20627;-37
2023/03/06 03:58:00;;;;;;;14.73;10.70;;;;;;;3.40;49.68;98811.66;10273868;28;20243;-37
2023/03/06 04:03:02;;;;;;;15.13;10.97;;;;;;;3.84;49.14;98764.56;10271860;28;20239;-36
2023/03/06 04:08:04;;;;;;;14.07;10.20;;;;;;;3.53;48.97;98779.44;10253964;28;20239;-39
2023/03/06 04:13:06;;;;;;;13.53;10.10;;;;;;;3.14;49.01;98824.94;10279822;28;20242;-36
2023/03/06 04:18:10;;;;;;;15.40;11.47;;;;;;;3.94;48.55;98766.25;10271270;28;20249;-38
2023/03/06 04:23:13;;;;;;;14.03;10.63;;;;;;;4.21;48.09;98730.63;10273772;28;20258;-39
2023/03/06 04:28:14;;;;;;;17.00;11.60;;;;;;;4.38;47.33;98734.91;10276927;28;20611;-38
2023/03/06 04:33:16;;;;;;;16.00;11.57;;;;;;;3.91;48.06;98796.50;10266026;28;20239;-38
2023/03/06 04:38:18;;;;;;;14.97;11.23;;;;;;;4.55;46.67;98734.88;10270762;28;20602;-38
2023/03/06 04:43:20;;;;;;;14.57;10.50;;;;;;;3.65;48.90;98794.03;10265465;28;20308;-38
2023/03/06 04:48:21;;;;;;;15.00;10.43;;;;;;;3.63;48.57;98796.81;10267468;28;20254;-37
2023/03/06 04:53:23;;;;;;;15.03;11.27;;;;;;;3.90;48.18;98773.69;10272425;28;20231;-37
2023/03/06 04:58:25;;;;;;;14.53;10.70;;;;;;;3.94;48.09;98777.66;10270449;28;20716;-38
2023/03/06 05:03:26;;;;;;;14.70;10.73;;;;;;;3.10;48.45;98803.28;10262736;28;20242;-39
2023/03/06 05:08:29;;;;;;;13.57;10.27;;;;;;;3.42;48.64;98804.38;10265421;28;20226;-39
2023/03/06 05:13:30;;;;;;;17.27;11.23;;;;;;;3.55;48.90;98786.22;10268225;28;20588;-38
2023/03/06 05:18:34;;;;;;;16.30;10.77;;;;;;;3.69;48.73;98757.47;10272441;28;20504;-38
2023/03/06 05:23:37;;;;;;;19.83;11.23;;;;;;;3.77;47.77;98754.84;10269164;28;20641;-37
2023/03/06 05:28:39;;;;;;;14.93;11.57;;;;;;;3.48;48.50;98793.16;10252422;28;20235;-37
2023/03/06 05:33:41;;;;;;;15.77;11.60;;;;;;;4.03;47.50;98744.88;10265135;28;20236;-38
2023/03/06 05:38:42;;;;;;;16.50;11.23;;;;;;;3.45;48.72;98802.25;10261925;28;20245;-38
2023/03/06 05:43:44;;;;;;;18.23;11.03;;;;;;;4.03;47.57;98755.47;10254692;28;20618;-39
2023/03/06 05:48:46;;;;;;;16.37;11.47;;;;;;;3.36;48.68;98811.16;10258462;28;20551;-39
2023/03/06 05:53:48;;;;;;;15.30;11.87;;;;;;;3.65;48.48;98799.31;10267625;28;20234;-38
2023/03/06 05:58:50;;;;;;;15.43;11.17;;;;;;;2.50;50.10;98856.94;10259233;28;20307;-38
2023/03/06 06:03:52;;;;;;;17.33;11.63;;;;;;;3.03;49.61;98805.75;10259274;28;20244;-37
2023/03/06 06:08:53;;;;;;;15.90;11.83;;;;;;;3.95;48.07;98750.19;10258310;28;20616;-39
2023/03/06 06:13:55;;;;;;;16.53;11.80;;;;;;;3.22;49.55;98803.84;10262994;28;20281;-39
2023/03/06 06:18:57;;;;;;;14.33;11.27;;;;;;;3.24;49.04;98800.06;10261289;28;20632;-39
2023/03/06 06:23:59;;;;;;;15.90;11.20;;;;;;;3.95;47.50;98741.41;10258967;28;20274;-39
2023/03/06 06:29:03;;;;;;;15.53;11.67;;;;;;;3.18;48.00;98795.41;10264732;28;20242;-38
2023/03/06 06:34:06;;;;;;;16.73;10.70;;;;;;;2.57;50.17;98851.88;10262958;28;20241;-38
2023/03/06 06:39:09;;;;;;;18.23;11.20;;;;;;;3.03;49.48;98815.50;10262518;28;20329;-38
2023/03/06 06:44:13;;;;;;;16.13;13.03;;;;;;;3.52;48.72;98789.19;10259080;28;20249;-37
2023/03/06 06:49:15;;;;;;;20.00;10.80;;;;;;;2.44;49.83;98839.09;10263750;28;20243;-38
2023/03/06 06:54:18;;;;;;;14.03;11.43;;;;;;;2.72;49.86;98837.94;10255597;28;20246;-37
2023/03/06 06:59:22;;;;;;;15.47;11.40;;;;;;;2.86;49.94;98823.31;10260525;28;20326;-38
2023/03/06 07:04:24;;;;;;;15.77;10.27;;;;;;;3.69;48.89;98768.06;10266687;28;20794;-38
2023/03/06 07:09:26;;;;;;;14.13;10.40;;;;;;;3.63;49.11;98782.75;10255455;28;20257;-38
2023/03/06 07:14:27;;;;;;;15.90;11.77;;;;;;;3.31;49.83;98797.59;10265411;28;20236;-38
2023/03/06 07:19:29;;;;;;;17.13;11.97;;;;;;;3.61;49.25;98776.81;10264428;28;20227;-37
2023/03/06 07:24:31;;;;;;;16.47;12.57;;;;;;;2.30;50.95;98869.53;10274669;28;20241;-39
2023/03/06 07:29:33;;;;;;;16.27;12.20;;;;;;;3.73;48.77;98753.50;10271476;28;20238;-38
2023/03/06 07:34:35;;;;;;;15.33;11.47;;;;;;;3.15;50.77;98818.69;10270631;28;20234;-39
2023/03/06 07:39:36;;;;;;;14.10;11.13;;;;;;;2.71;50.88;98836.28;10272891;28;20242;-38
2023/03/06 07:44:39;;;;;;;15.80;11.23;;;;;;;3.22;50.36;98802.00;10269722;28;20611;-38
2023/03/06 07:49:40;;;;;;;16.80;11.17;;;;;;;1.30;53.01;98902.91;10261417;28;20333;-38
2023/03/06 07:54:42;;;;;;;15.47;10.90;;;;;;;2.12;52.15;98848.41;10273383;28;20258;-36
2023/03/06 07:59:44;;;;;;;16.70;11.07;;;;;;;1.26;54.88;98915.56;10270732;28;20652;-38
2023/03/06 08:04:51;;;;;;;14.20;10.63;;;;;;;2.68;51.34;98790.84;10277439;28;20231;-38
2023/03/06 08:09:53;;;;;;;15.60;11.33;;;;;;;2.52;52.22;98831.22;10271071;28;20250;-39
2023/03/06 08:14:55;;;;;;;17.93;12.33;;;;;;;3.43;50.44;98758.44;10270347;28;20751;-38
2023/03/06 08:19:56;;;;;;;16.30;11.90;;;;;;;2.53;52.11;98836.34;10266701;28;20234;-39
2023/03/06 08:24:58;;;;;;;15.43;10.73;;;;;;;2.76;51.66;98806.75;10276673;28;20239;-37
2023/03/06 08:30:00;;;;;;;13.77;11.17;;;;;;;1.77;53.51;98865.91;10274008;28;20254;-36
2023/03/06 08:35:03;;;;;;;13.43;10.03;;;;;;;2.58;51.94;98806.81;10274916;28;20246;-38
2023/03/06 08:40:06;;;;;;;15.00;11.33;;;;;;;2.92;51.87;98782.22;10254913;28;20235;-37
2023/03/06 08:45:08;;;;;;;16.20;11.47;;;;;;;2.69;50.58;98797.81;10267614;28;20568;-36
2023/03/06 08:50:10;;;;;;;13.97;10.67;;;;;;;3.21;50.79;98787.16;10265781;28;20253;-38
2023/03/06 08:55:12;;;;;;;16.80;11.07;;;;;;;2.73;50.71;98809.72;10266682;28;20242;-37
2023/03/06 09:00:16;;;;;;;22.60;11.67;;;;;;;2.41;51.88;98832.28;10262992;28;20243;-37
2023/03/06 09:05:18;;;;;;;17.43;11.23;;;;;;;2.41;51.57;98824.38;10271217;28;20321;-38
2023/03/06 09:10:23;;;;;;;14.40;11.20;;;;;;;3.96;49.81;98735.13;10269458;28;20243;-38
2023/03/06 09:15:25;;;;;;;17.13;12.13;;;;;;;3.16;50.40;98793.88;10269354;28;20660;-38
2023/03/06 09:20:26;;;;;;;45.63;26.30;;;;;;;3.07;50.60;98799.16;10266814;28;20265;-37
2023/03/06 09:25:28;;;;;;;21.50;17.00;;;;;;;3.77;49.58;98768.88;10271706;28;20235;-38
2023/03/06 09:30:30;;;;;;;15.13;12.30;;;;;;;2.97;51.13;98830.16;10270495;28;20624;-37
2023/03/06 09:35:32;;;;;;;15.87;12.23;;;;;;;4.23;49.71;98751.66;10267803;28;20593;-38
2023/03/06 09:40:56;;;;;;;20.30;14.87;;;;;;;3.15;50.68;98824.78;10267980;28;20305;-38
2023/03/06 09:45:58;;;;;;;17.13;13.00;;;;;;;3.91;49.70;98780.63;10259861;28;20257;-38
2023/03/06 09:51:11;;;;;;;18.47;12.47;;;;;;;3.50;50.36;98815.00;10270064;28;20238;-38
2023/03/06 09:56:19;;;;;;;18.60;13.90;;;;;;;4.03;49.16;98786.41;10268614;28;20762;-39
2023/03/06 10:01:29;;;;;;;17.47;12.70;;;;;;;3.84;49.78;98804.28;10271454;28;20506;-37
2023/03/06 10:06:47;;;;;;;19.20;12.20;;;;;;;3.55;51.04;98833.03;10262827;28;20246;-39
2023/03/06 10:11:57;;;;;;;15.47;11.27;;;;;;;3.49;50.05;98817.78;10268721;28;20249;-39
2023/03/06 10:17:00;;;;;;;14.23;10.80;;;;;;;4.29;49.67;98780.94;10263593;28;20325;-38
2023/03/06 10:22:23;;;;;;;12.57;10.17;;;;;;;3.76;50.43;98820.16;10262033;28;20589;-37
2023/03/06 10:27:41;;;;;;;14.30;10.63;;;;;;;3.49;50.76;98817.78;10264161;28;20586;-37
2023/03/06 10:32:50;;;;;;;14.50;10.40;;;;;;;3.97;49.93;98779.97;10259281;28;20773;-37
2023/03/06 10:37:59;;;;;;;14.33;10.80;;;;;;;3.81;50.40;98782.59;10270683;28;20246;-41
2023/03/06 10:43:01;;;;;;;13.63;9.67;;;;;;;3.53;50.43;98808.53;10266333;28;20736;-37
2023/03/06 10:48:18;;;;;;;12.73;10.50;;;;;;;4.17;49.83;98764.56;10262726;28;20235;-37
2023/03/06 10:53:30;;;;;;;14.63;10.33;;;;;;;5.66;47.86;98731.13;10264749;28;20249;-41
2023/03/06 10:58:31;;;;;;;12.07;9.87;;;;;;;4.06;48.82;98806.44;10261276;28;20456;-38
2023/03/06 11:06:34;;;;;;;13.43;9.40;;;;;;;2.95;52.36;98820.75;10395330;28;20801;-61
2023/03/06 11:11:35;;;;;;;13.73;10.07;;;;;;;2.60;51.86;98843.63;10305879;28;20240;-61
2023/03/06 11:16:38;;;;;;;12.17;8.57;;;;;;;2.95;50.87;98836.59;10344228;28;20229;-62
2023/03/06 11:21:40;;;;;;;11.27;9.23;;;;;;;3.25;50.33;98793.75;10339882;28;20242;-62
2023/03/06 11:26:50;;;;;;;13.23;9.33;;;;;;;2.74;51.07;98824.59;10346386;28;20225;-62
2023/03/06 11:32:10;;;;;;;11.83;9.67;;;;;;;2.40;50.33;98837.72;10342998;28;20236;-61
2023/03/06 11:37:43;;;;;;;12.97;8.83;;;;;;;3.75;49.20;98770.88;10349270;28;20233;-62
2023/03/06 11:42:52;;;;;;;10.93;9.00;;;;;;;3.05;49.55;98830.19;10339588;28;20612;-61
2023/03/06 11:48:15;;;;;;;12.30;9.53;;;;;;;3.72;48.17;98802.13;10343625;28;20245;-62
2023/03/06 11:53:36;;;;;;;9.80;8.20;;;;;;;2.99;48.42;98840.56;10338845;28;20261;-62
2023/03/06 11:58:55;;;;;;;9.80;8.37;;;;;;;3.55;48.11;98801.28;10338599;28;20265;-62
2023/03/06 12:04:21;;;;;;;11.23;8.47;;;;;;;3.62;47.47;98800.44;10342231;28;20233;-62
2023/03/06 12:09:31;;;;;;;15.47;10.07;;;;;;;3.18;47.87;98840.34;10338497;28;20716;-61
2023/03/06 12:14:32;;;;;;;11.80;8.63;;;;;;;3.08;48.63;98832.53;10326588;28;20226;-62
2023/03/06 12:20:06;;;;;;;12.13;9.03;;;;;;;3.39;48.06;98808.16;10309657;28;20242;-60
2023/03/06 12:25:41;;;;;;;9.57;7.30;;;;;;;3.61;48.56;98797.97;10310591;28;20230;-62
2023/03/06 12:31:08;;;;;;;10.40;8.50;;;;;;;3.99;47.79;98764.75;10311716;28;20752;-62
2023/03/06 12:36:23;;;;;;;13.37;9.07;;;;;;;3.99;48.07;98775.34;10311536;28;20236;-62
2023/03/06 12:41:36;;;;;;;11.20;8.40;;;;;;;4.08;48.00;98765.56;10309904;28;20239;-62
2023/03/06 12:46:55;;;;;;;10.60;8.37;;;;;;;3.37;48.73;98817.28;10314240;28;20330;-63
2023/03/06 12:51:58;;;;;;;10.63;7.97;;;;;;;3.79;48.07;98781.94;10315570;28;20245;-62
2023/03/06 12:57:00;;;;;;;11.23;8.33;;;;;;;4.30;47.81;98745.50;10299691;28;20242;-61
2023/03/06 13:02:36;;;;;;;9.60;7.77;;;;;;;3.81;48.23;98774.66;10306579;28;20242;-62
2023/03/06 13:08:11;;;;;;;9.13;7.03;;;;;;;3.12;49.15;98819.00;10303517;28;20286;-63
2023/03/06 13:13:31;;;;;;;9.30;7.40;;;;;;;3.12;49.36;98829.56;10306450;28;20230;-61
2023/03/06 13:18:32;;;;;;;9.87;7.57;;;;;;;3.48;49.03;98793.16;10298466;28;20295;-59
2023/03/06 13:23:34;;;;;;;8.93;7.53;;;;;;;3.06;49.59;98812.53;10304349;28;20252;-62
2023/03/06 13:28:39;;;;;;;8.03;6.53;;;;;;;2.36;51.06;98850.41;10301759;28;20710;-62
2023/03/06 13:33:44;;;;;;;8.67;7.70;;;;;;;3.06;50.31;98788.75;10305894;28;20236;-62
2023/03/06 13:38:48;;;;;;;9.70;7.63;;;;;;;3.95;49.69;98726.38;10305762;28;20250;-63
2023/03/06 13:43:55;;;;;;;13.50;8.67;;;;;;;3.43;50.98;98761.91;10307369;28;20257;-60
2023/03/06 13:49:11;;;;;;;10.33;8.03;;;;;;;3.65;50.24;98728.69;10301221;28;20234;-60
2023/03/06 13:54:44;;;;;;;10.23;8.00;;;;;;;3.39;50.85;98743.88;10305236;28;20230;-59
2023/03/06 13:59:52;;;;;;;10.60;8.33;;;;;;;2.89;51.31;98758.75;10302279;28;20249;-60
2023/03/06 14:05:14;;;;;;;9.73;7.97;;;;;;;2.83;52.25;98784.00;10306262;28;20742;-60
2023/03/06 14:10:23;;;;;;;11.23;9.03;;;;;;;3.19;51.51;98738.03;10302453;28;20245;-60
2023/03/06 14:15:53;;;;;;;10.97;9.37;;;;;;;2.90;51.40;98755.94;10306467;28;20230;-63
2023/03/06 14:20:55;;;;;;;11.50;9.27;;;;;;;2.93;51.64;98751.38;10306671;28;20729;-60
2023/03/06 14:26:22;;;;;;;12.63;10.30;;;;;;;3.07;51.58;98741.03;10302661;28;20241;-62
2023/03/06 14:31:26;;;;;;;12.40;10.33;;;;;;;3.47;50.52;98698.94;10307833;28;20241;-60
2023/03/06 14:36:49;;;;;;;12.90;10.30;;;;;;;4.18;49.35;98670.06;10310637;28;20234;-59
2023/03/06 14:42:03;;;;;;;13.93;11.37;;;;;;;3.64;50.54;98707.69;10307972;28;20675;-62
2023/03/06 14:47:27;;;;;;;12.43;9.73;;;;;;;3.77;50.21;98707.19;10301908;28;20257;-60
2023/03/06 14:52:29;;;;;;;13.83;10.93;;;;;;;3.95;49.29;98691.97;10301269;28;20226;-60
2023/03/06 14:57:31;;;;;;;15.37;11.60;;;;;;;4.19;49.52;98675.19;10303612;28;20234;-60
2023/03/06 15:05:32;;;;;;;14.90;10.33;;;;;;;2.30;52.57;98737.53;10305338;28;20868;-59
2023/03/06 15:10:37;;;;;;;13.57;10.40;;;;;;;2.84;52.16;98714.31;10300798;28;20238;-58
2023/03/06 15:15:39;;;;;;;13.47;10.40;;;;;;;3.44;50.95;98668.31;10306265;28;20234;-59
2023/03/06 15:20:43;;;;;;;13.37;10.10;;;;;;;2.32;51.79;98761.94;10304750;28;20249;-60
2023/03/06 15:25:56;;;;;;;13.77;10.80;;;;;;;3.14;50.30;98680.38;10303786;28;20732;-60
2023/03/06 15:31:15;;;;;;;11.40;9.37;;;;;;;2.95;49.62;98700.00;10305851;28;20236;-58
2023/03/06 15:36:28;;;;;;;12.87;9.37;;;;;;;3.72;49.41;98657.41;10304441;28;20237;-62
2023/03/06 15:41:37;;;;;;;15.33;10.30;;;;;;;2.45;50.36;98743.88;10299529;28;20241;-59
2023/03/06 15:46:39;;;;;;;13.30;10.30;;;;;;;3.81;49.08;98666.97;10303297;28;20285;-59
2023/03/06 15:51:41;;;;;;;14.50;11.20;;;;;;;3.07;50.42;98713.72;10297054;28;20652;-60
2023/03/06 15:56:45;;;;;;;15.77;9.70;;;;;;;2.71;49.51;98737.72;10306570;28;20238;-59
2023/03/06 16:01:47;;;;;;;12.37;9.57;;;;;;;3.31;48.52;98709.47;10304830;28;20245;-57
2023/03/06 16:07:02;;;;;;;14.80;10.80;;;;;;;3.66;48.28;98700.41;10335467;23;20279;-85
2023/03/06 18:08:55;;;;;;;14.10;11.27;;;;;;;4.01;48.58;98752.16;10435698;23;20807;-40
2023/03/06 18:13:56;;;;;;;14.40;11.40;;;;;;;3.98;48.84;98752.50;10426200;28;20240;-40
2023/03/06 18:18:58;;;;;;;13.37;11.23;;;;;;;3.92;47.98;98752.31;10427068;28;20228;-40
2023/03/06 18:24:00;;;;;;;15.53;12.03;;;;;;;2.72;50.66;98826.53;10416334;28;20317;-37
2023/03/06 18:29:03;;;;;;;14.20;12.47;;;;;;;3.89;48.37;98757.97;10431098;28;20577;-40
2023/03/06 18:34:13;;;;;;;15.70;12.20;;;;;;;4.34;47.84;98761.91;10423045;28;20232;-39
2023/03/06 18:39:15;;;;;;;17.20;13.83;;;;;;;4.04;48.01;98766.91;10421795;28;20258;-39
2023/03/06 18:44:17;;;;;;;17.77;13.17;;;;;;;4.02;48.01;98774.19;10428962;28;20617;-39
2023/03/06 18:49:19;;;;;;;15.70;12.50;;;;;;;3.49;48.19;98799.28;10423343;28;20802;-37
2023/03/06 18:54:23;;;;;;;16.27;12.50;;;;;;;3.27;48.85;98809.47;10413411;28;20234;-37
2023/03/06 18:59:25;;;;;;;14.03;11.03;;;;;;;3.19;48.96;98831.44;10466518;28;20343;-39
2023/03/06 19:04:27;;;;;;;15.37;11.90;;;;;;;3.56;48.52;98811.66;10464726;28;20489;-38
2023/03/06 19:09:28;;;;;;;15.17;11.83;;;;;;;4.02;47.99;98774.19;10455812;28;20316;-38
2023/03/06 19:14:30;;;;;;;16.13;11.63;;;;;;;3.31;48.44;98817.91;10464216;28;20238;-39
2023/03/06 19:19:32;;;;;;;15.10;12.53;;;;;;;2.77;48.60;98820.78;10468309;28;20258;-40
2023/03/06 19:24:34;;;;;;;17.43;13.27;;;;;;;3.54;48.16;98812.84;10468708;28;20232;-40
2023/03/06 19:29:37;;;;;;;16.17;11.20;;;;;;;3.30;47.79;98803.84;10470425;28;20235;-39
2023/03/06 19:34:39;;;;;;;13.27;10.83;;;;;;;3.26;48.23;98816.56;10470744;28;20323;-40
2023/03/06 19:39:41;;;;;;;15.57;11.70;;;;;;;2.92;48.50;98832.44;10459471;28;20267;-38
2023/03/06 19:44:43;;;;;;;16.57;10.43;;;;;;;2.85;48.85;98831.41;10459891;28;20231;-38
2023/03/06 19:49:45;;;;;;;13.23;10.43;;;;;;;3.23;48.44;98795.75;10462060;28;20235;-39
2023/03/06 19:54:47;;;;;;;13.17;10.30;;;;;;;2.94;48.53;98808.50;10469914;28;20239;-37
2023/03/06 19:59:52;;;;;;;13.70;9.80;;;;;;;3.50;47.95;98785.06;10468762;28;20239;-37
2023/03/06 20:04:54;;;;;;;12.47;10.63;;;;;;;3.66;47.65;98774.50;10475516;28;20232;-38
2023/03/06 20:09:59;;;;;;;13.50;9.87;;;;;;;3.12;48.26;98795.22;10476525;28;20334;-39
2023/03/06 20:15:01;;;;;;;13.90;10.17;;;;;;;2.37;48.78;98830.97;10474919;28;20238;-40
2023/03/06 20:20:03;;;;;;;13.83;10.20;;;;;;;2.85;48.35;98783.84;10469157;28;20250;-38
2023/03/06 20:25:05;;;;;;;14.37;10.80;;;;;;;2.75;48.89;98805.09;10473384;28;20239;-38
2023/03/06 20:30:07;;;;;;;14.40;9.60;;;;;;;2.00;49.87;98824.06;10469029;28;20242;-39
2023/03/06 20:35:09;;;;;;;13.83;10.47;;;;;;;2.98;48.58;98770.22;10473269;28;20242;-38
2023/03/06 20:40:11;;;;;;;12.27;9.83;;;;;;;2.91;48.69;98780.59;10471360;28;20679;-40
2023/03/06 20:45:14;;;;;;;12.57;9.30;;;;;;;3.32;47.93;98759.56;10468942;28;20235;-39
2023/03/06 20:50:16;;;;;;;12.50;9.53;;;;;;;2.92;48.61;98795.44;10463405;28;20613;-38
2023/03/06 20:55:17;;;;;;;16.23;10.63;;;;;;;1.96;49.29;98817.41;10468216;28;20235;-39
2023/03/06 21:00:20;;;;;;;12.83;9.97;;;;;;;2.79;48.76;98782.66;10469331;28;20235;-40
2023/03/06 21:05:21;;;;;;;12.17;9.60;;;;;;;2.85;48.85;98776.72;10473188;28;20850;-36
2023/03/06 21:10:23;;;;;;;12.53;9.77;;;;;;;2.72;49.15;98785.09;10467134;28;20232;-39
2023/03/06 21:15:28;;;;;;;11.93;9.90;;;;;;;2.29;48.91;98789.47;10471482;28;20610;-37
2023/03/06 21:20:30;;;;;;;13.57;10.20;;;;;;;2.95;48.39;98747.56;10471027;28;20241;-39
2023/03/06 21:25:32;;;;;;;13.63;10.40;;;;;;;3.00;47.94;98736.53;10473915;28;20231;-37
2023/03/06 21:30:34;;;;;;;13.47;10.33;;;;;;;2.85;48.86;98760.06;10472934;28;20231;-40
2023/03/06 21:35:40;;;;;;;12.60;9.80;;;;;;;2.65;48.72;98768.25;10471261;28;20223;-40
2023/03/06 21:40:44;;;;;;;12.17;9.60;;;;;;;2.32;49.53;98785.72;10473504;28;20243;-40
2023/03/06 21:45:47;;;;;;;13.27;10.20;;;;;;;2.48;49.11;98759.38;10468182;28;20270;-40
2023/03/06 21:50:49;;;;;;;12.87;9.57;;;;;;;2.72;48.75;98742.84;10474155;28;20697;-39
2023/03/06 21:55:50;;;;;;;14.50;10.93;;;;;;;3.31;47.98;98720.06;10471388;28;20270;-39
2023/03/06 22:00:52;;;;;;;13.57;10.17;;;;;;;2.87;48.50;98748.34;10473554;28;20257;-39
2023/03/06 22:05:55;;;;;;;12.83;9.23;;;;;;;2.45;49.69;98756.22;10477056;28;20232;-39
2023/03/06 22:10:57;;;;;;;12.80;9.80;;;;;;;2.37;49.63;98759.66;10469507;28;20274;-37
2023/03/06 22:15:58;;;;;;;16.67;10.10;;;;;;;3.09;48.27;98714.41;10463994;28;20760;-39
2023/03/06 22:21:05;;;;;;;13.40;7.60;;;;;;;1.42;50.16;98768.16;10467416;28;20239;-39
2023/03/06 22:26:11;;;;;;;12.47;9.57;;;;;;;2.95;48.50;98722.97;10468390;28;20457;-37
2023/03/06 22:31:15;;;;;;;13.40;9.83;;;;;;;2.39;48.60;98738.38;10443220;28;20247;-38
2023/03/06 22:36:19;;;;;;;13.03;9.77;;;;;;;2.86;48.73;98720.25;10461494;28;20231;-37
2023/03/06 22:41:22;;;;;;;13.70;11.03;;;;;;;2.04;49.67;98756.78;10464739;28;20231;-39
2023/03/06 22:46:24;;;;;;;13.53;10.23;;;;;;;2.05;49.96;98770.84;10469476;28;20341;-37
2023/03/06 22:51:27;;;;;;;12.57;9.20;;;;;;;2.32;49.83;98744.28;10463133;28;20231;-38
2023/03/06 22:56:30;;;;;;;13.37;10.00;;;;;;;3.10;48.33;98685.16;10472380;28;20647;-38
2023/03/06 23:01:33;;;;;;;15.40;11.07;;;;;;;2.85;49.03;98705.38;10465517;28;21309;-38
2023/03/06 23:06:38;;;;;;;12.03;9.47;;;;;;;2.09;49.92;98733.41;10475923;28;20235;-39
2023/03/06 23:11:40;;;;;;;13.87;10.73;;;;;;;1.26;51.34;98775.03;10469817;28;20697;-39
2023/03/06 23:16:43;;;;;;;13.97;10.70;;;;;;;2.48;49.58;98684.63;10473130;28;20250;-39
2023/03/06 23:21:45;;;;;;;14.20;10.47;;;;;;;2.23;50.38;98699.50;10465174;28;22838;-38
2023/03/06 23:26:46;;;;;;;14.53;10.30;;;;;;;2.19;50.60;98691.06;10471840;28;20245;-38
2023/03/06 23:31:48;;;;;;;12.13;9.47;;;;;;;2.15;50.09;98681.84;10458666;28;20247;-38
2023/03/06 23:36:50;;;;;;;13.10;9.60;;;;;;;2.83;49.17;98643.94;10475156;28;20235;-38
2023/03/06 23:41:51;;;;;;;13.13;10.20;;;;;;;2.50;49.42;98670.28;10471943;28;20232;-37
2023/03/06 23:46:53;;;;;;;14.10;10.07;;;;;;;3.27;48.20;98630.47;10476602;28;20239;-37
2023/03/06 23:51:55;;;;;;;11.97;8.90;;;;;;;2.25;48.99;98684.34;10474416;28;20239;-39
2023/03/06 23:56:56;;;;;;;13.73;10.53;;;;;;;2.75;49.49;98674.81;10478267;28;20223;-36
